General Aviation Weather

Text Reports

Enter one or more of the following location identifiers separated by a space:

Zip Code, Four-Character ICAO or Three-Character IATA airport codes.

METAR - Aviation Routine Weather Report
KMLC - McAlester, Oklahoma
Updated at 12:53 AM GMT on January 30, 2015 (6:53 PM CST):
METAR KMLC 300053Z AUTO 36007KT 10SM FEW100 09/M01 A3045 RMK AO2 SLP311 T00891011
TAF - Terminal Area Forecast
KMLC - McAlester, Oklahoma
Updated at 12:53 AM GMT on January 30, 2015 (6:53 PM CST):
No TAF is currently available for this location.
Decoded:
No decoded TAF is available.
PIREP - Pilot Weather Report
KMLC - McAlester, Oklahoma
Updated at 12:53 AM GMT on January 30, 2015 (6:53 PM CST):
No PIREP is currently available for this location.
AIRMET - Airmens Meteorological Information
KMLC - McAlester, Oklahoma
Updated at 12:53 AM GMT on January 30, 2015 (6:53 PM CST):
No AIRMET is currently available for this location.
SIGMET - Significant Meteorological Information
KMLC - McAlester, Oklahoma
Updated at 12:53 AM GMT on January 30, 2015 (6:53 PM CST):
No SIGMET is currently available for this location.
NOTAM - Notice to Airmen
KMLC - McAlester, Oklahoma
Updated at 12:53 AM GMT on January 30, 2015 (6:53 PM CST):
No NOTAM is currently available for this location.
Forecast Area
KMLC - McAlester, Oklahoma
Updated at 12:53 AM GMT on January 30, 2015 (6:53 PM CST):
No NOTAM is currently available for this location.
Aviation Weather Maps